KTOP/TOP METAR and TAF weather

Enter ICAO airport designator
Station Type Date Time Source
KTOP METAR 2022/11/26 08:53 UTC NOAA

KTOP 260853Z AUTO 00000KT 10SM CLR M03/M05 A3014 RMK AO2 SLP210 I1000 I3000 T10331050 58015


Station Type Date Time Source
KTOP Decoded METAR 2022/11/26 08:53 UTC NOAA

TOPEKA BILLARD MUNICIPAL AIRPORT, KS, United States (KTOP) 39-04N 95-38W 268M
Nov 26, 2022 - 03:53 AM EST / 2022.11.26 0853 UTC
Wind: Calm:0
Visibility: 10 mile(s):0
Sky conditions: clear
Temperature: 26.1 F (-3.3 C)
Dew Point: 23.0 F (-5.0 C)
Relative Humidity: 87%
Pressure (altimeter): 30.14 in. Hg (1020 hPa)
Pressure tendency: 0.04 inches (1.5 hPa) lower than three hours ago
ob: KTOP 260853Z AUTO 00000KT 10SM CLR M03/M05 A3014 RMK AO2 SLP210 I1000 I3000 T10331050 58015
cycle: 9

Station Type Date Time Source
KTOP TAF 2022/11/26 06:22 UTC NOAA

TAF KTOP 260520Z 2606/2706 VRB03KT P6SM SKC
FM261200 20006KT P6SM BKN250
FM270000 VRB03KT P6SM RA OVC045

Example: see airport list